Elliott, South Carolina
Current Conditions -  °F | °C
As of 11:35 PM on Tuesday 21 Oct 2014 (Local Time) from KSMS Reporting Station
Clear Clear  
Wind Chill: 17°   Ceiling: Unl
Heat Index: 17°   Visibility: 10mi
Dew Point:   Wind: 7mph
Humidity: 55%   Direction: 360°N
Pressure: 29.95"   Gusts: NA
Location:  34.11°N, 80.16°W
Report Text: KSMS 220335Z AUTO 36006KT 10SM CLR 17/08 A2995 RMK AO2
Loading
Personal Weather Stations






























Interactive Weather Map
Tropical Storm Tracking
New forecast layout! Learn more

10-Day Weather Forecast

Advertisements
Track Severe Weather on mobile